Time;durP1;ratioP1;P1;durP2;ratioP2;P2;SDS_P1;SDS_P2;PMS_P1;PMS_P2;Temp;Humidity;BMP_temperature;BMP_pressure;BME280_temperature;BME280_humidity;BME280_pressure;Samples;Min_cycle;Max_cycle;Signal;HPM_P1;HPM_P2
2024/04/12 05:29:54;;;;;;;9.32;3.17;;;;;;;;;;2237172;25;20748;-64
2024/04/12 05:30:56;;;;;;;12.90;3.10;;;;;;;;;;2208082;26;20302;-65
2024/04/12 05:31:58;;;;;;;13.75;3.58;;;;;;;;;;2210465;26;20597;-65
2024/04/12 05:37:35;;;;;;;10.18;3.58;;;;;;;;;;2270191;25;20544;-65
2024/04/12 05:41:59;;;;;;;12.00;3.50;;;;;;;;;;2222656;26;21057;-63
2024/04/12 07:00:10;;;;;;;14.90;2.97;;;;;;;;;;2252128;26;20552;-61
2024/04/12 07:01:11;;;;;;;7.32;2.80;;;;;;;;;;2210261;25;20248;-61
2024/04/12 07:02:14;;;;;;;10.52;3.20;;;;;;;;;;2212216;26;20219;-62
2024/04/12 07:03:16;;;;;;;13.80;3.95;;;;;;;;;;2209724;26;20924;-61
2024/04/12 07:04:17;;;;;;;17.27;3.25;;;;;;;;;;2211361;26;20220;-61
2024/04/12 07:05:21;;;;;;;10.13;3.35;;;;;;;;;;2214088;26;20240;-61
2024/04/12 07:06:25;;;;;;;9.85;3.33;;;;;;;;;;2226223;26;20290;-61
2024/04/12 07:07:28;;;;;;;6.60;2.67;;;;;;;;;;2225422;26;20261;-61
2024/04/12 07:08:30;;;;;;;7.72;2.70;;;;;;;;;;2228017;26;20273;-61
2024/04/12 07:09:32;;;;;;;12.75;3.30;;;;;;;;;;2228493;26;20246;-62
2024/04/12 07:10:35;;;;;;;10.35;2.60;;;;;;;;;;2227036;26;20250;-62
2024/04/12 07:11:40;;;;;;;10.20;3.00;;;;;;;;;;2229068;26;20230;-62
2024/04/12 07:12:43;;;;;;;10.50;3.42;;;;;;;;;;2226778;26;20300;-62
2024/04/12 07:13:49;;;;;;;12.68;3.10;;;;;;;;;;2228953;26;20214;-61
2024/04/12 07:14:54;;;;;;;7.40;3.00;;;;;;;;;;2228193;26;20215;-61
2024/04/12 07:15:56;;;;;;;4.72;2.80;;;;;;;;;;2215671;26;20303;-62
2024/04/12 07:16:59;;;;;;;6.18;1.90;;;;;;;;;;2212929;26;20223;-61
2024/04/12 07:18:02;;;;;;;8.82;3.35;;;;;;;;;;2207422;26;20236;-62
2024/04/12 07:19:08;;;;;;;11.85;2.97;;;;;;;;;;2206218;26;20212;-61
2024/04/12 07:20:13;;;;;;;8.65;3.45;;;;;;;;;;2207742;26;20216;-61
2024/04/12 07:21:16;;;;;;;9.23;2.92;;;;;;;;;;2213605;26;20225;-62
2024/04/12 07:22:21;;;;;;;10.70;3.10;;;;;;;;;;2214506;26;20258;-62
2024/04/12 07:23:22;;;;;;;11.00;3.13;;;;;;;;;;2212985;26;20215;-62
2024/04/12 07:24:25;;;;;;;7.90;2.83;;;;;;;;;;2213299;26;20908;-62
2024/04/12 07:25:26;;;;;;;8.70;2.90;;;;;;;;;;2212636;26;20297;-61
2024/04/12 07:26:29;;;;;;;21.00;3.55;;;;;;;;;;2209937;26;20208;-62
2024/04/12 07:27:33;;;;;;;7.00;2.53;;;;;;;;;;2212588;26;20214;-62
2024/04/12 07:28:34;;;;;;;13.43;2.50;;;;;;;;;;2212292;26;20687;-61
2024/04/12 07:29:36;;;;;;;7.20;2.90;;;;;;;;;;2210720;26;21424;-61
2024/04/12 07:30:38;;;;;;;7.65;2.60;;;;;;;;;;2208178;26;20730;-62
2024/04/12 07:31:42;;;;;;;9.00;3.15;;;;;;;;;;2210315;26;20213;-63
2024/04/12 07:32:44;;;;;;;10.43;3.22;;;;;;;;;;2208992;26;20220;-63
2024/04/12 07:33:45;;;;;;;8.85;3.20;;;;;;;;;;2210578;26;20244;-62
2024/04/12 07:34:51;;;;;;;5.68;2.65;;;;;;;;;;2211491;26;20816;-62
2024/04/12 07:35:52;;;;;;;5.80;2.40;;;;;;;;;;2208028;26;20951;-62
2024/04/12 07:36:54;;;;;;;8.05;3.00;;;;;;;;;;2209502;26;20220;-63
2024/04/12 07:37:59;;;;;;;16.17;2.67;;;;;;;;;;2209921;26;20239;-62
2024/04/12 07:39:07;;;;;;;16.08;2.90;;;;;;;;;;2212212;26;20213;-62
2024/04/12 07:40:17;;;;;;;14.00;2.78;;;;;;;;;;2213376;26;20480;-62
2024/04/12 07:41:19;;;;;;;10.32;2.45;;;;;;;;;;2211488;26;20282;-62
2024/04/12 07:42:22;;;;;;;7.28;2.40;;;;;;;;;;2212222;26;20892;-63
2024/04/12 07:43:25;;;;;;;17.13;3.03;;;;;;;;;;2212808;26;20220;-62
2024/04/12 07:44:27;;;;;;;8.48;3.00;;;;;;;;;;2213486;26;20216;-63
2024/04/12 07:45:30;;;;;;;8.70;2.17;;;;;;;;;;2200056;26;20260;-65
2024/04/12 07:46:35;;;;;;;8.20;2.50;;;;;;;;;;2211040;26;20238;-66
2024/04/12 07:47:44;;;;;;;8.60;2.90;;;;;;;;;;2213790;26;20268;-66
2024/04/12 07:48:48;;;;;;;4.28;2.10;;;;;;;;;;2210689;26;20272;-65
2024/04/12 07:49:54;;;;;;;7.13;2.45;;;;;;;;;;2212502;26;20322;-66
2024/04/12 07:50:56;;;;;;;9.75;2.35;;;;;;;;;;2208346;26;20270;-65
2024/04/12 07:51:58;;;;;;;9.30;2.65;;;;;;;;;;2211143;26;20576;-65
2024/04/12 07:53:10;;;;;;;11.15;3.38;;;;;;;;;;2212272;26;20275;-66
2024/04/12 07:54:12;;;;;;;14.80;2.55;;;;;;;;;;2209795;26;20216;-66
2024/04/12 07:55:23;;;;;;;5.82;2.78;;;;;;;;;;2214831;26;20264;-65
2024/04/12 07:56:28;;;;;;;7.70;2.70;;;;;;;;;;2214149;26;20661;-66
2024/04/12 07:57:29;;;;;;;5.93;2.67;;;;;;;;;;2211160;26;20225;-66
2024/04/12 07:58:34;;;;;;;13.02;2.30;;;;;;;;;;2211759;26;20220;-66
2024/04/12 07:59:37;;;;;;;12.48;2.42;;;;;;;;;;2209482;26;20695;-66
2024/04/12 08:00:45;;;;;;;14.98;3.80;;;;;;;;;;2216782;26;20326;-65
2024/04/12 08:01:47;;;;;;;13.80;2.50;;;;;;;;;;2228779;26;20231;-65
2024/04/12 08:02:49;;;;;;;7.78;2.65;;;;;;;;;;2224443;26;20224;-64
2024/04/12 08:03:55;;;;;;;11.43;3.85;;;;;;;;;;2219770;26;20228;-62
2024/04/12 08:04:57;;;;;;;6.43;2.20;;;;;;;;;;2226699;26;20253;-63
2024/04/12 08:06:05;;;;;;;11.00;3.30;;;;;;;;;;2225397;26;20966;-62
2024/04/12 08:07:13;;;;;;;16.85;3.08;;;;;;;;;;2227119;26;20459;-62
2024/04/12 08:08:15;;;;;;;6.30;2.80;;;;;;;;;;2227178;26;20634;-62
2024/04/12 08:09:34;;;;;;;8.48;2.60;;;;;;;;;;2224321;26;20568;-62
2024/04/12 08:10:41;;;;;;;6.40;2.38;;;;;;;;;;2223245;26;20386;-62
2024/04/12 08:11:43;;;;;;;8.32;3.45;;;;;;;;;;2219142;26;20261;-62
2024/04/12 08:12:49;;;;;;;7.90;3.45;;;;;;;;;;2222467;26;20321;-62
2024/04/12 08:13:53;;;;;;;11.52;3.58;;;;;;;;;;2220425;26;20220;-62
2024/04/12 08:14:55;;;;;;;10.10;3.20;;;;;;;;;;2218257;26;20256;-62
2024/04/12 08:15:59;;;;;;;12.05;3.63;;;;;;;;;;2213064;26;20343;-63
2024/04/12 08:17:01;;;;;;;10.48;3.70;;;;;;;;;;2218321;26;20263;-62
2024/04/12 08:18:03;;;;;;;8.30;3.65;;;;;;;;;;2218084;26;20846;-62
2024/04/12 08:19:13;;;;;;;11.00;4.15;;;;;;;;;;2217106;26;20519;-62
2024/04/12 08:20:16;;;;;;;5.60;2.80;;;;;;;;;;2220371;26;20346;-63
2024/04/12 08:21:19;;;;;;;10.55;3.50;;;;;;;;;;2221883;26;20251;-61
2024/04/12 08:22:25;;;;;;;9.13;3.42;;;;;;;;;;2219548;26;20674;-63
2024/04/12 08:23:29;;;;;;;10.68;3.50;;;;;;;;;;2219386;26;20211;-66
2024/04/12 08:24:33;;;;;;;18.23;4.40;;;;;;;;;;2221372;26;20219;-65
2024/04/12 08:25:39;;;;;;;16.95;4.00;;;;;;;;;;2219831;26;20731;-66
2024/04/12 08:26:46;;;;;;;14.15;3.55;;;;;;;;;;2214520;26;20212;-65
2024/04/12 08:27:47;;;;;;;8.75;3.63;;;;;;;;;;2220916;26;20220;-65
2024/04/12 08:28:51;;;;;;;11.98;4.10;;;;;;;;;;2217925;26;20258;-66
2024/04/12 08:29:53;;;;;;;9.43;3.97;;;;;;;;;;2219373;26;20263;-65
2024/04/12 08:31:05;;;;;;;13.90;4.40;;;;;;;;;;2218900;26;20790;-65
2024/04/12 08:33:14;;;;;;;10.40;4.03;;;;;;;;;;2219933;26;20527;-65
2024/04/12 08:34:16;;;;;;;7.65;4.53;;;;;;;;;;2219489;26;20223;-66
2024/04/12 08:35:21;;;;;;;9.70;4.32;;;;;;;;;;2219171;26;20224;-65
2024/04/12 08:36:24;;;;;;;11.93;4.28;;;;;;;;;;2222313;26;20212;-65
2024/04/12 08:37:36;;;;;;;9.95;4.15;;;;;;;;;;2220055;26;20283;-65
2024/04/12 08:38:53;;;;;;;10.50;4.70;;;;;;;;;;2221250;26;20219;-65
2024/04/12 08:39:55;;;;;;;11.50;4.28;;;;;;;;;;2221964;26;20262;-65
2024/04/12 08:41:01;;;;;;;11.05;5.22;;;;;;;;;;2221010;26;20317;-65
2024/04/12 08:42:04;;;;;;;16.85;4.63;;;;;;;;;;2223253;26;20219;-66
2024/04/12 08:43:09;;;;;;;10.70;4.75;;;;;;;;;;2218570;26;20490;-65
2024/04/12 08:44:12;;;;;;;16.52;6.07;;;;;;;;;;2221054;26;20224;-65
2024/04/12 08:45:17;;;;;;;15.93;5.20;;;;;;;;;;2220258;26;20622;-66
2024/04/12 08:46:25;;;;;;;13.98;4.75;;;;;;;;;;2208723;26;20319;-66
2024/04/12 08:48:31;;;;;;;12.88;4.55;;;;;;;;;;2208322;26;20213;-63
2024/04/12 08:49:33;;;;;;;9.88;4.72;;;;;;;;;;2208750;26;20508;-63
2024/04/12 08:50:35;;;;;;;9.50;4.97;;;;;;;;;;2207586;26;20264;-63
2024/04/12 08:51:39;;;;;;;10.07;4.18;;;;;;;;;;2208496;26;20272;-63
2024/04/12 08:52:43;;;;;;;26.75;6.07;;;;;;;;;;2207552;26;20657;-63
2024/04/12 08:53:45;;;;;;;17.15;4.55;;;;;;;;;;2207171;26;20217;-63
2024/04/12 08:54:49;;;;;;;10.70;4.45;;;;;;;;;;2207147;26;20258;-62
2024/04/12 08:55:50;;;;;;;22.10;5.30;;;;;;;;;;2201475;26;20252;-63
2024/04/12 08:56:52;;;;;;;18.05;5.10;;;;;;;;;;2206876;26;20291;-63
2024/04/12 08:58:06;;;;;;;13.63;5.50;;;;;;;;;;2206285;26;20234;-62
2024/04/12 08:59:13;;;;;;;11.70;4.20;;;;;;;;;;2205606;26;20666;-62
2024/04/12 09:00:18;;;;;;;15.23;4.50;;;;;;;;;;2205183;26;20259;-63
2024/04/12 09:01:25;;;;;;;14.15;4.90;;;;;;;;;;2218470;26;20232;-62
2024/04/12 09:02:31;;;;;;;16.85;5.05;;;;;;;;;;2219023;26;20561;-62
2024/04/12 09:03:40;;;;;;;9.27;3.92;;;;;;;;;;2221268;26;20261;-63
2024/04/12 09:04:42;;;;;;;7.60;4.10;;;;;;;;;;2221822;26;20216;-62
2024/04/12 09:05:44;;;;;;;14.63;4.45;;;;;;;;;;2211864;26;20255;-63
2024/04/12 09:06:48;;;;;;;10.48;3.63;;;;;;;;;;2206048;26;20233;-62
2024/04/12 09:07:58;;;;;;;15.63;4.15;;;;;;;;;;2205298;26;20213;-63
2024/04/12 09:09:03;;;;;;;12.38;3.90;;;;;;;;;;2207989;26;20283;-63
2024/04/12 09:10:06;;;;;;;13.85;4.25;;;;;;;;;;2208672;26;20264;-62
2024/04/12 09:11:09;;;;;;;13.20;3.17;;;;;;;;;;2206040;26;20247;-62
2024/04/12 09:12:12;;;;;;;10.57;3.88;;;;;;;;;;2206657;26;20275;-62
2024/04/12 09:13:15;;;;;;;13.93;3.63;;;;;;;;;;2206982;26;20213;-63
2024/04/12 09:14:20;;;;;;;9.85;4.15;;;;;;;;;;2206679;26;20892;-62
2024/04/12 09:15:24;;;;;;;8.60;3.65;;;;;;;;;;2206311;26;20267;-62
2024/04/12 09:16:29;;;;;;;7.25;3.05;;;;;;;;;;2218406;26;20794;-63
2024/04/12 09:17:37;;;;;;;10.15;4.53;;;;;;;;;;2217815;26;20554;-63
2024/04/12 09:18:46;;;;;;;11.00;3.10;;;;;;;;;;2220111;26;20250;-66
2024/04/12 09:19:50;;;;;;;9.60;3.85;;;;;;;;;;2218009;26;20216;-63
2024/04/12 09:21:01;;;;;;;14.88;4.22;;;;;;;;;;2209459;26;20287;-62
2024/04/12 09:22:09;;;;;;;12.02;3.60;;;;;;;;;;2203537;26;20976;-63
2024/04/12 09:23:14;;;;;;;15.50;3.75;;;;;;;;;;2205027;26;20862;-63
2024/04/12 09:24:21;;;;;;;19.08;3.60;;;;;;;;;;2206906;26;20965;-63
2024/04/12 09:25:26;;;;;;;9.60;3.00;;;;;;;;;;2207004;26;20220;-63
2024/04/12 09:26:39;;;;;;;8.07;2.97;;;;;;;;;;2208208;26;20419;-63
2024/04/12 09:27:48;;;;;;;12.60;3.80;;;;;;;;;;2206195;26;20275;-63
2024/04/12 09:29:09;;;;;;;14.60;4.32;;;;;;;;;;2204700;26;20212;-63
2024/04/12 09:32:52;;;;;;;6.20;3.67;;;;;;;;;;2206162;26;20209;-62
2024/04/12 09:33:56;;;;;;;8.25;2.95;;;;;;;;;;2207975;26;20733;-63
2024/04/12 09:35:02;;;;;;;15.65;3.78;;;;;;;;;;2206179;26;20329;-63
2024/04/12 09:36:13;;;;;;;10.93;4.00;;;;;;;;;;2206034;26;20254;-63
2024/04/12 09:38:39;;;;;;;8.35;3.20;;;;;;;;;;2208461;26;20217;-63
2024/04/12 09:39:57;;;;;;;12.88;3.20;;;;;;;;;;2203766;26;20332;-63
2024/04/12 09:41:27;;;;;;;10.30;3.58;;;;;;;;;;2202321;26;20756;-63
2024/04/12 09:43:48;;;;;;;13.35;3.20;;;;;;;;;;2206115;26;20214;-66
2024/04/12 09:44:50;;;;;;;8.00;3.25;;;;;;;;;;2203857;26;20237;-66
2024/04/12 09:46:05;;;;;;;7.85;3.50;;;;;;;;;;2204679;26;20252;-66
2024/04/12 10:37:44;;;;;;;5.70;2.08;;;;;;;;;;2221594;26;20389;-66
2024/04/12 10:38:48;;;;;;;5.80;2.55;;;;;;;;;;2220407;26;20585;-66
2024/04/12 10:39:50;;;;;;;7.65;3.03;;;;;;;;;;2206715;26;20217;-66
2024/04/12 10:40:52;;;;;;;6.38;2.45;;;;;;;;;;2206256;26;20249;-63
2024/04/12 10:41:54;;;;;;;13.30;2.70;;;;;;;;;;2220527;26;20625;-64
2024/04/12 10:42:57;;;;;;;10.73;2.55;;;;;;;;;;2218799;26;20236;-63
2024/04/12 10:43:58;;;;;;;12.13;2.40;;;;;;;;;;2220316;26;20219;-64
2024/04/12 10:45:01;;;;;;;11.02;2.83;;;;;;;;;;2221439;26;20262;-63
2024/04/12 10:46:05;;;;;;;8.25;2.40;;;;;;;;;;2221167;26;20252;-63
2024/04/12 10:47:12;;;;;;;9.35;2.88;;;;;;;;;;2221382;26;20232;-63
2024/04/12 10:48:20;;;;;;;9.75;2.72;;;;;;;;;;2221191;26;20207;-64
2024/04/12 10:49:22;;;;;;;10.65;2.53;;;;;;;;;;2220392;26;20334;-64
2024/04/12 10:50:23;;;;;;;15.65;3.00;;;;;;;;;;2220525;26;20275;-63
2024/04/12 10:51:25;;;;;;;10.05;3.03;;;;;;;;;;2221327;26;20268;-63
2024/04/12 10:52:30;;;;;;;9.35;2.83;;;;;;;;;;2220497;26;20647;-64
2024/04/12 10:53:33;;;;;;;11.93;2.55;;;;;;;;;;2219376;26;20730;-66
2024/04/12 10:54:37;;;;;;;10.82;4.10;;;;;;;;;;2221495;26;20247;-66
2024/04/12 10:55:44;;;;;;;12.23;3.15;;;;;;;;;;2220381;26;20298;-66
2024/04/12 10:56:47;;;;;;;8.27;2.15;;;;;;;;;;2220617;26;20318;-66
2024/04/12 10:57:49;;;;;;;6.45;1.80;;;;;;;;;;2219783;26;20746;-66
2024/04/12 10:58:56;;;;;;;9.68;2.72;;;;;;;;;;2219881;26;20268;-66
2024/04/12 11:00:00;;;;;;;8.13;2.40;;;;;;;;;;2214971;26;20366;-66
2024/04/12 11:01:05;;;;;;;8.93;2.00;;;;;;;;;;2216406;26;20255;-65
2024/04/12 11:02:10;;;;;;;6.40;2.33;;;;;;;;;;2216728;26;20220;-66
2024/04/12 11:03:17;;;;;;;9.30;2.50;;;;;;;;;;2218822;26;20316;-66
2024/04/12 11:04:28;;;;;;;8.45;2.85;;;;;;;;;;2220224;26;20224;-65
2024/04/12 11:06:37;;;;;;;11.73;2.60;;;;;;;;;;2222791;26;20220;-63
2024/04/12 11:07:39;;;;;;;10.63;3.30;;;;;;;;;;2222470;26;20220;-62
2024/04/12 11:08:41;;;;;;;7.60;3.00;;;;;;;;;;2219297;26;20264;-63
2024/04/12 11:09:43;;;;;;;8.05;2.80;;;;;;;;;;2214955;26;20222;-63
2024/04/12 11:10:57;;;;;;;8.07;2.63;;;;;;;;;;2215616;26;20253;-63
2024/04/12 11:12:09;;;;;;;6.45;2.63;;;;;;;;;;2204780;26;20264;-63
2024/04/12 11:13:22;;;;;;;15.48;2.70;;;;;;;;;;2203600;26;20292;-63
2024/04/12 11:14:27;;;;;;;10.40;2.47;;;;;;;;;;2205452;26;20644;-63
2024/04/12 11:31:47;;;;;;;7.30;2.05;;;;;;;;;;2207194;26;20261;-67
2024/04/12 11:32:55;;;;;;;8.38;1.75;;;;;;;;;;2207503;26;20222;-66
2024/04/12 11:33:57;;;;;;;5.53;2.60;;;;;;;;;;2204659;26;20265;-66
2024/04/12 11:35:11;;;;;;;8.23;2.47;;;;;;;;;;2203413;26;20829;-66
2024/04/12 11:36:19;;;;;;;6.32;2.35;;;;;;;;;;2206580;26;20358;-66
2024/04/12 11:37:24;;;;;;;4.85;2.50;;;;;;;;;;2205101;26;20261;-66
2024/04/12 11:38:27;;;;;;;7.07;2.83;;;;;;;;;;2204665;26;20257;-66
2024/04/12 11:39:31;;;;;;;9.95;2.75;;;;;;;;;;2205384;26;20222;-67
2024/04/12 11:40:37;;;;;;;10.88;2.33;;;;;;;;;;2212866;26;20550;-66
2024/04/12 11:41:41;;;;;;;8.20;3.17;;;;;;;;;;2206577;26;20332;-66
2024/04/12 11:42:45;;;;;;;10.77;2.65;;;;;;;;;;2200266;26;20262;-66
2024/04/12 11:43:46;;;;;;;9.35;3.05;;;;;;;;;;2205491;26;20344;-66
2024/04/12 11:44:48;;;;;;;9.38;2.47;;;;;;;;;;2205985;26;20795;-67
2024/04/12 11:45:50;;;;;;;5.57;2.22;;;;;;;;;;2200775;26;20258;-66
2024/04/12 11:46:56;;;;;;;6.55;2.45;;;;;;;;;;2206984;26;20739;-66
2024/04/12 11:47:59;;;;;;;11.77;2.63;;;;;;;;;;2204556;26;20211;-67
2024/04/12 11:49:07;;;;;;;13.63;2.38;;;;;;;;;;2207829;26;20262;-66
2024/04/12 11:50:10;;;;;;;7.47;2.58;;;;;;;;;;2207892;26;20664;-66
2024/04/12 11:51:15;;;;;;;11.93;3.03;;;;;;;;;;2204874;26;20979;-66
2024/04/12 11:52:17;;;;;;;11.95;2.10;;;;;;;;;;2206069;26;20219;-66
2024/04/12 11:53:20;;;;;;;6.38;2.75;;;;;;;;;;2204454;26;20219;-66
2024/04/12 11:54:31;;;;;;;11.63;2.88;;;;;;;;;;2205767;26;20222;-66
2024/04/12 11:55:35;;;;;;;8.23;2.75;;;;;;;;;;2203990;26;20257;-66
2024/04/12 11:56:36;;;;;;;5.97;1.92;;;;;;;;;;2207903;26;20270;-66
2024/04/12 11:57:41;;;;;;;5.88;2.60;;;;;;;;;;2207270;26;20299;-66
2024/04/12 11:58:43;;;;;;;6.57;3.40;;;;;;;;;;2203650;26;20229;-66
2024/04/12 11:59:46;;;;;;;8.88;2.40;;;;;;;;;;2208830;26;20275;-66
2024/04/12 12:00:48;;;;;;;5.80;2.70;;;;;;;;;;2199348;26;20292;-66
2024/04/12 12:01:49;;;;;;;6.30;2.45;;;;;;;;;;2201964;26;20218;-66
2024/04/12 12:02:52;;;;;;;11.15;2.35;;;;;;;;;;2207636;26;20220;-66
2024/04/12 12:03:54;;;;;;;8.57;2.47;;;;;;;;;;2207777;26;20290;-66
2024/04/12 12:04:56;;;;;;;10.10;2.53;;;;;;;;;;2205875;26;20953;-65
2024/04/12 12:06:06;;;;;;;9.88;2.08;;;;;;;;;;2201124;26;20277;-65
2024/04/12 12:07:09;;;;;;;16.35;3.25;;;;;;;;;;2204245;26;20348;-66
2024/04/12 12:08:13;;;;;;;12.50;1.95;;;;;;;;;;2202399;26;20909;-67
2024/04/12 12:09:14;;;;;;;14.27;3.28;;;;;;;;;;2199920;26;20214;-67
2024/04/12 12:10:16;;;;;;;7.93;3.05;;;;;;;;;;2206765;26;20776;-67
2024/04/12 12:11:18;;;;;;;10.38;2.67;;;;;;;;;;2201211;26;20300;-67
2024/04/12 12:12:22;;;;;;;8.23;2.30;;;;;;;;;;2204020;26;20249;-67
2024/04/12 12:13:24;;;;;;;5.80;2.00;;;;;;;;;;2202118;26;20223;-66
2024/04/12 12:14:25;;;;;;;9.00;2.90;;;;;;;;;;2202303;26;20711;-66
2024/04/12 12:15:27;;;;;;;8.52;2.88;;;;;;;;;;2204013;26;20226;-66
2024/04/12 12:16:28;;;;;;;11.07;2.10;;;;;;;;;;2221876;26;20218;-67
2024/04/12 12:17:30;;;;;;;6.88;2.70;;;;;;;;;;2221213;26;20221;-64
2024/04/12 12:18:35;;;;;;;8.57;2.13;;;;;;;;;;2222230;26;20218;-65
2024/04/12 12:19:37;;;;;;;7.65;2.80;;;;;;;;;;2222709;26;20218;-65
2024/04/12 12:20:38;;;;;;;6.93;2.15;;;;;;;;;;2220534;26;20262;-65
2024/04/12 12:21:40;;;;;;;10.10;2.30;;;;;;;;;;2219972;26;20218;-65
2024/04/12 12:22:41;;;;;;;10.40;2.65;;;;;;;;;;2218127;26;20221;-65
2024/04/12 12:23:42;;;;;;;8.18;2.63;;;;;;;;;;2220182;26;20850;-65
2024/04/12 12:24:44;;;;;;;6.28;1.80;;;;;;;;;;2222456;26;20261;-65
2024/04/12 12:25:47;;;;;;;7.22;2.45;;;;;;;;;;2221258;26;20254;-65
2024/04/12 12:26:49;;;;;;;6.68;2.40;;;;;;;;;;2219962;26;20261;-65
2024/04/12 12:27:52;;;;;;;8.80;2.40;;;;;;;;;;2216135;26;20222;-65
2024/04/12 12:28:55;;;;;;;13.77;2.83;;;;;;;;;;2216986;26;20213;-65
2024/04/12 12:29:56;;;;;;;7.70;2.55;;;;;;;;;;2218709;26;20255;-65
2024/04/12 12:30:58;;;;;;;6.85;2.28;;;;;;;;;;2220999;26;20292;-65
2024/04/12 12:31:59;;;;;;;5.43;2.05;;;;;;;;;;2222133;26;20217;-65
2024/04/12 12:33:06;;;;;;;5.75;2.05;;;;;;;;;;2218679;26;20223;-65
2024/04/12 12:34:08;;;;;;;11.82;2.55;;;;;;;;;;2221190;26;20256;-65
2024/04/12 12:35:21;;;;;;;8.25;2.70;;;;;;;;;;2222222;26;20540;-65
2024/04/12 12:36:27;;;;;;;6.20;2.47;;;;;;;;;;2221758;26;20274;-65
2024/04/12 12:37:29;;;;;;;8.05;2.70;;;;;;;;;;2222781;26;20219;-65
2024/04/12 12:38:34;;;;;;;4.30;1.90;;;;;;;;;;2220165;26;20525;-65
2024/04/12 12:39:37;;;;;;;7.85;2.72;;;;;;;;;;2218389;26;20221;-65
2024/04/12 12:40:38;;;;;;;10.38;2.30;;;;;;;;;;2213029;26;20228;-65
2024/04/12 12:41:45;;;;;;;5.40;2.17;;;;;;;;;;2206910;26;20235;-66
2024/04/12 12:42:51;;;;;;;8.35;2.58;;;;;;;;;;2206240;26;20298;-65
2024/04/12 12:43:54;;;;;;;34.08;19.95;;;;;;;;;;2206708;26;20214;-63
2024/04/12 12:44:56;;;;;;;56.72;36.88;;;;;;;;;;2206202;26;20264;-65
2024/04/12 12:45:57;;;;;;;19.42;12.48;;;;;;;;;;2202584;26;20288;-64
2024/04/12 12:46:59;;;;;;;28.63;20.30;;;;;;;;;;2207203;26;20231;-64
2024/04/12 12:48:00;;;;;;;17.95;2.78;;;;;;;;;;2206341;26;20612;-65
2024/04/12 12:49:03;;;;;;;7.43;2.57;;;;;;;;;;2205679;26;20218;-65
2024/04/12 12:50:05;;;;;;;13.73;2.15;;;;;;;;;;2206204;26;20889;-65
2024/04/12 12:51:08;;;;;;;6.77;2.50;;;;;;;;;;2205434;26;20751;-65
2024/04/12 12:52:12;;;;;;;6.55;2.30;;;;;;;;;;2207103;26;20943;-65
2024/04/12 12:53:15;;;;;;;13.67;2.37;;;;;;;;;;2208163;26;20218;-64
2024/04/12 12:54:18;;;;;;;14.30;2.83;;;;;;;;;;2202700;26;20510;-64
2024/04/12 12:55:22;;;;;;;14.23;2.33;;;;;;;;;;2204208;26;20352;-64
2024/04/12 12:56:24;;;;;;;15.50;2.03;;;;;;;;;;2207270;26;20376;-65
2024/04/12 12:57:25;;;;;;;9.80;2.53;;;;;;;;;;2208657;26;20261;-65
2024/04/12 12:58:27;;;;;;;6.13;2.30;;;;;;;;;;2207283;26;20219;-65
2024/04/12 12:59:29;;;;;;;13.27;2.65;;;;;;;;;;2204191;26;21095;-65
2024/04/12 13:00:36;;;;;;;11.20;2.73;;;;;;;;;;2210153;26;20642;-68
2024/04/12 13:01:41;;;;;;;10.13;2.40;;;;;;;;;;2221172;26;20527;-68
2024/04/12 13:02:44;;;;;;;7.10;2.15;;;;;;;;;;2220328;26;20520;-68
2024/04/12 13:03:45;;;;;;;6.67;2.10;;;;;;;;;;2216843;26;20222;-68
2024/04/12 13:04:47;;;;;;;9.52;2.58;;;;;;;;;;2220033;26;20511;-67
2024/04/12 13:05:49;;;;;;;12.60;2.80;;;;;;;;;;2210784;26;20277;-67
2024/04/12 13:06:50;;;;;;;8.70;2.30;;;;;;;;;;2201531;26;20933;-68
2024/04/12 13:07:53;;;;;;;7.10;2.33;;;;;;;;;;2206307;26;20503;-67
2024/04/12 13:08:58;;;;;;;11.50;2.00;;;;;;;;;;2207472;26;20881;-67
2024/04/12 13:10:00;;;;;;;9.53;2.70;;;;;;;;;;2203704;26;20508;-65
2024/04/12 13:11:07;;;;;;;9.03;2.07;;;;;;;;;;2202867;26;20573;-65
2024/04/12 13:12:12;;;;;;;5.17;1.80;;;;;;;;;;2201664;26;20463;-65
2024/04/12 13:13:21;;;;;;;7.40;2.10;;;;;;;;;;2201092;26;20482;-65
2024/04/12 13:14:23;;;;;;;8.50;2.43;;;;;;;;;;2203304;26;20665;-68
2024/04/12 13:15:24;;;;;;;6.30;2.20;;;;;;;;;;2205009;26;20452;-68
2024/04/12 13:16:26;;;;;;;9.13;2.20;;;;;;;;;;2204226;26;20458;-68
2024/04/12 13:17:36;;;;;;;12.63;3.27;;;;;;;;;;2207361;26;20504;-67
2024/04/12 13:18:56;;;;;;;7.93;2.40;;;;;;;;;;2206806;26;20573;-68
2024/04/12 13:20:04;;;;;;;8.85;2.50;;;;;;;;;;2207647;26;20369;-68
2024/04/12 13:21:08;;;;;;;10.13;2.00;;;;;;;;;;2208084;26;20304;-65
2024/04/12 13:22:11;;;;;;;8.37;2.27;;;;;;;;;;2206068;26;20801;-65
2024/04/12 13:23:14;;;;;;;14.20;1.92;;;;;;;;;;2208059;26;20458;-65
2024/04/12 13:24:16;;;;;;;8.07;2.60;;;;;;;;;;2205239;26;20257;-65
2024/04/12 13:25:18;;;;;;;5.78;1.92;;;;;;;;;;2204359;26;20321;-65
2024/04/12 13:26:31;;;;;;;6.88;2.33;;;;;;;;;;2207824;26;20309;-65
2024/04/12 13:27:33;;;;;;;16.40;2.63;;;;;;;;;;2206479;26;20940;-65
2024/04/12 13:28:35;;;;;;;9.10;2.20;;;;;;;;;;2205586;26;20266;-65
2024/04/12 13:29:38;;;;;;;9.73;2.08;;;;;;;;;;2206416;26;20222;-65
2024/04/12 13:30:43;;;;;;;9.05;1.95;;;;;;;;;;2205673;26;20231;-65
2024/04/12 13:31:50;;;;;;;7.85;2.20;;;;;;;;;;2206503;26;20238;-65
2024/04/12 13:32:58;;;;;;;6.72;1.65;;;;;;;;;;2207479;26;20285;-65
2024/04/12 13:34:00;;;;;;;7.07;1.70;;;;;;;;;;2206746;26;20322;-65
2024/04/12 13:35:02;;;;;;;5.75;1.90;;;;;;;;;;2203492;26;20294;-65
2024/04/12 13:36:10;;;;;;;8.82;2.10;;;;;;;;;;2197542;26;20681;-65
2024/04/12 13:37:14;;;;;;;10.93;3.00;;;;;;;;;;2200151;26;20581;-65
2024/04/12 13:38:15;;;;;;;7.30;2.35;;;;;;;;;;2205290;26;20238;-64
2024/04/12 13:39:17;;;;;;;7.72;2.35;;;;;;;;;;2205341;26;20220;-67
2024/04/12 13:40:22;;;;;;;8.93;2.10;;;;;;;;;;2206339;26;20250;-67
2024/04/12 13:41:23;;;;;;;8.50;2.10;;;;;;;;;;2205474;26;20254;-68
2024/04/12 13:42:25;;;;;;;10.50;2.10;;;;;;;;;;2202692;26;20223;-67
2024/04/12 13:43:27;;;;;;;7.45;2.10;;;;;;;;;;2204197;26;20222;-67
2024/04/12 13:51:10;;;;;;;6.30;1.95;;;;;;;;;;2209236;26;20254;-67
2024/04/12 13:52:12;;;;;;;9.57;2.00;;;;;;;;;;2205711;26;20265;-66
2024/04/12 13:53:16;;;;;;;7.75;2.08;;;;;;;;;;2205418;26;20314;-66
2024/04/12 13:54:24;;;;;;;6.20;1.73;;;;;;;;;;2204673;26;20226;-66
2024/04/12 13:55:28;;;;;;;8.85;1.90;;;;;;;;;;2204464;26;20213;-67
2024/04/12 13:56:32;;;;;;;8.40;2.13;;;;;;;;;;2203093;26;20270;-66
2024/04/12 13:57:34;;;;;;;9.00;2.30;;;;;;;;;;2216063;26;20264;-66
2024/04/12 13:58:35;;;;;;;7.50;1.80;;;;;;;;;;2216274;26;20867;-67
2024/04/12 13:59:42;;;;;;;10.18;1.95;;;;;;;;;;2202092;26;20251;-67
2024/04/12 14:00:48;;;;;;;6.30;1.80;;;;;;;;;;2217833;26;20238;-66
2024/04/12 14:01:51;;;;;;;7.22;2.28;;;;;;;;;;2207649;26;20230;-67
2024/04/12 14:02:54;;;;;;;7.53;1.87;;;;;;;;;;2205336;26;20258;-67
2024/04/12 14:04:02;;;;;;;6.68;1.80;;;;;;;;;;2205183;26;20495;-67
2024/04/12 14:05:03;;;;;;;6.22;2.25;;;;;;;;;;2206225;26;20222;-62
2024/04/12 14:06:05;;;;;;;7.88;2.15;;;;;;;;;;2205713;26;20784;-63
2024/04/12 14:07:09;;;;;;;8.85;1.75;;;;;;;;;;2205634;26;20219;-63
2024/04/12 14:08:20;;;;;;;6.80;1.83;;;;;;;;;;2206344;26;20227;-63
2024/04/12 14:09:22;;;;;;;6.93;1.90;;;;;;;;;;2206399;26;20493;-63
2024/04/12 14:10:25;;;;;;;10.70;2.20;;;;;;;;;;2207029;26;20512;-63
2024/04/12 14:11:27;;;;;;;7.72;1.88;;;;;;;;;;2219293;26;20250;-63
2024/04/12 14:12:28;;;;;;;6.10;1.83;;;;;;;;;;2220489;26;20310;-63
2024/04/12 14:13:30;;;;;;;7.47;1.88;;;;;;;;;;2218325;26;20453;-64
2024/04/12 14:14:31;;;;;;;9.80;5.50;;;;;;;;;;2217282;26;20221;-65
2024/04/12 14:15:36;;;;;;;11.70;3.80;;;;;;;;;;2214560;26;21052;-64
2024/04/12 14:16:42;;;;;;;47.70;27.43;;;;;;;;;;2204089;26;20706;-65
2024/04/12 14:17:44;;;;;;;10.48;7.20;;;;;;;;;;2208345;26;20440;-63
2024/04/12 14:18:48;;;;;;;6.87;2.03;;;;;;;;;;2206931;26;20571;-63
2024/04/12 14:19:51;;;;;;;10.63;1.60;;;;;;;;;;2205562;26;20453;-62
2024/04/12 14:20:53;;;;;;;7.90;1.95;;;;;;;;;;2208657;26;20527;-63
2024/04/12 14:21:55;;;;;;;6.20;1.75;;;;;;;;;;2218933;26;20268;-63
2024/04/12 14:22:57;;;;;;;6.17;1.60;;;;;;;;;;2215227;26;20214;-62
2024/04/12 14:24:02;;;;;;;6.60;1.57;;;;;;;;;;2216790;26;20506;-63
2024/04/12 14:25:04;;;;;;;7.63;1.83;;;;;;;;;;2221444;26;20504;-63
2024/04/12 14:26:09;;;;;;;7.57;1.40;;;;;;;;;;2219937;26;20296;-63
2024/04/12 14:27:11;;;;;;;8.30;2.03;;;;;;;;;;2220450;26;20797;-63
2024/04/12 14:28:14;;;;;;;5.93;1.50;;;;;;;;;;2221122;26;20498;-62
2024/04/12 14:29:16;;;;;;;6.63;2.70;;;;;;;;;;2220267;26;20225;-63
2024/04/12 14:30:17;;;;;;;11.25;1.70;;;;;;;;;;2217352;26;20923;-63
2024/04/12 14:31:26;;;;;;;10.37;1.93;;;;;;;;;;2216078;26;20306;-62
2024/04/12 14:32:29;;;;;;;4.25;1.55;;;;;;;;;;2216921;26;20457;-63
2024/04/12 14:33:31;;;;;;;6.80;1.60;;;;;;;;;;2222352;26;20289;-63
2024/04/12 14:34:34;;;;;;;6.07;2.03;;;;;;;;;;2216899;26;20812;-63
2024/04/12 14:35:41;;;;;;;8.40;1.80;;;;;;;;;;2216769;26;20609;-63
2024/04/12 14:36:43;;;;;;;10.75;2.20;;;;;;;;;;2204767;26;21208;-62
2024/04/12 14:37:44;;;;;;;7.28;1.80;;;;;;;;;;2203789;26;20838;-63
2024/04/12 14:38:48;;;;;;;8.43;1.77;;;;;;;;;;2202682;26;20269;-63
2024/04/12 14:39:50;;;;;;;4.80;1.63;;;;;;;;;;2200728;26;20445;-62